.
WxDataArchive / Data Records for 2013-11-08
2013-11-07 November 2013 2013-11-09

Data Records for Friday, 08 November 2013

Time	Temp	Chill	HIndex	Humid	Dewpt	 Wind 	HiWind	WindDir	Rain 	Barom 
-----	----	-----	------	-----	-----	------	------	-------	-----	----- 
00:00	36.9	36.9	36.9	77	30.4	0	1	270	0.00	30.183 
00:05	36.9	36.9	36.9	77	30.4	0	1	270	0.00	30.183 
00:10	36.8	36.8	36.8	78	30.6	0	1	270	0.00	30.183 
00:15	36.6	36.6	36.6	78	30.4	0	1	270	0.00	30.182 
00:20	36.6	36.6	36.6	78	30.4	0	2	270	0.00	30.182 
00:25	36.6	36.6	36.6	78	30.4	0	1	270	0.00	30.182 
00:30	36.5	36.5	36.5	79	30.6	0	2	270	0.00	30.184 
00:35	36.5	36.5	36.5	79	30.6	1	3	270	0.00	30.184 
00:40	36.3	36.3	36.3	79	30.4	1	4	315	0.00	30.184 
00:45	36.3	36.3	36.3	79	30.4	1	4	270	0.00	30.186 
00:50	36.2	36.2	36.2	79	30.3	0	2	270	0.00	30.186 
00:55	36.2	36.2	36.2	80	30.6	0	2	248	0.00	30.186 
01:00	35.9	35.9	35.9	80	30.3	0	3	248	0.00	30.183 
01:05	35.9	35.9	35.9	80	30.3	0	1	248	0.00	30.183 
01:10	35.8	35.8	35.8	80	30.2	0	2	248	0.00	30.183 
01:15	35.6	35.6	35.6	81	30.4	0	3	248	0.00	30.185 
01:20	35.6	35.6	35.6	81	30.4	0	1	248	0.00	30.185 
01:25	35.5	35.5	35.5	81	30.3	0	2	248	0.00	30.185 
01:30	35.3	35.3	35.3	81	30.1	0	2	248	0.00	30.184 
01:35	35.2	35.2	35.2	81	30.0	0	2	248	0.00	30.184 
01:40	35.2	35.2	35.2	82	30.3	1	3	248	0.00	30.184 
01:45	35.2	35.2	35.2	82	30.3	0	2	248	0.00	30.181 
01:50	35.0	35.0	35.0	82	30.1	0	2	248	0.00	30.181 
01:55	34.9	34.9	34.9	82	30.0	0	3	248	0.00	30.181 
02:00	34.7	34.7	34.7	83	30.1	0	3	248	0.00	30.184 
02:05	34.6	34.6	34.6	83	30.0	0	2	248	0.00	30.184 
02:10	34.6	34.6	34.6	83	30.0	0	1	248	0.00	30.184 
02:15	34.4	34.4	34.4	83	29.8	0	2	248	0.00	30.186 
02:20	34.3	34.3	34.3	83	29.7	0	2	248	0.00	30.186 
02:25	34.1	34.1	34.1	83	29.5	0	2	248	0.00	30.186 
02:30	34.0	34.0	34.0	84	29.7	0	2	248	0.00	30.197 
02:35	34.1	34.1	34.1	84	29.8	0	2	248	0.00	30.197 
02:40	34.1	34.1	34.1	84	29.8	1	5	270	0.00	30.197 
02:45	34.1	34.1	34.1	83	29.5	0	2	270	0.00	30.197 
02:50	34.3	34.3	34.3	83	29.7	1	3	248	0.00	30.197 
02:55	34.3	34.3	34.3	82	29.4	0	2	248	0.00	30.197 
03:00	34.4	34.4	34.4	82	29.5	0	3	248	0.00	30.200 
03:05	34.4	34.4	34.4	81	29.2	1	3	270	0.00	30.200 
03:10	34.4	34.4	34.4	81	29.2	1	3	270	0.00	30.200 
03:15	34.6	34.6	34.6	81	29.4	0	3	270	0.00	30.200 
03:20	34.6	34.6	34.6	81	29.4	1	3	248	0.00	30.200 
03:25	34.6	34.6	34.6	80	29.1	0	2	248	0.00	30.200 
03:30	34.6	34.6	34.6	80	29.1	1	3	248	0.00	30.204 
03:35	34.6	34.6	34.6	80	29.1	1	3	270	0.00	30.204 
03:40	34.6	34.6	34.6	80	29.1	2	4	270	0.00	30.204 
03:45	34.3	34.3	34.3	80	28.8	1	4	315	0.00	30.213 
03:50	34.1	34.1	34.1	80	28.6	1	4	270	0.00	30.213 
03:55	33.7	33.7	33.7	80	28.2	1	3	270	0.00	30.213 
04:00	33.4	33.4	33.4	81	28.2	0	2	270	0.00	30.210 
04:05	33.2	33.2	33.2	81	28.0	0	2	270	0.00	30.210 
04:10	33.1	33.1	33.1	82	28.2	0	2	270	0.00	30.210 
04:15	32.9	32.9	32.9	82	28.0	1	3	270	0.00	30.215 
04:20	32.9	32.9	32.9	83	28.3	1	3	270	0.00	30.215 
04:25	33.1	33.1	33.1	83	28.5	0	2	270	0.00	30.215 
04:30	33.1	33.1	33.1	83	28.5	1	3	270	0.00	30.218 
04:35	32.9	32.9	32.9	83	28.3	0	3	270	0.00	30.218 
04:40	32.8	32.8	32.8	83	28.2	0	2	270	0.00	30.218 
04:45	32.5	32.5	32.5	84	28.2	0	2	270	0.00	30.217 
04:50	32.4	32.4	32.4	84	28.1	0	1	270	0.00	30.217 
04:55	32.4	32.4	32.4	84	28.1	0	1	270	0.00	30.217 
05:00	32.2	32.2	32.2	84	27.9	0	1	270	0.00	30.223 
05:05	32.1	32.1	32.1	85	28.1	0	1	270	0.00	30.223 
05:10	31.9	31.9	31.9	85	27.9	0	1	270	0.00	30.223 
05:15	31.8	31.8	31.8	86	28.1	0	1	270	0.00	30.229 
05:20	31.6	31.6	31.6	86	27.9	0	0	---	0.00	30.229 
05:25	31.5	31.5	31.5	86	27.8	0	1	270	0.00	30.229 
05:30	31.3	31.3	31.3	87	27.9	0	1	270	0.00	30.236 
05:35	31.2	31.2	31.2	87	27.8	0	1	270	0.00	30.236 
05:40	31.2	31.2	31.2	87	27.8	0	2	270	0.00	30.236 
05:45	31.0	31.0	31.0	87	27.6	0	1	270	0.00	30.245 
05:50	31.0	31.0	31.0	88	27.9	0	1	270	0.00	30.245 
05:55	30.9	30.9	30.9	88	27.8	0	0	---	0.00	30.245 
06:00	30.7	30.7	30.7	88	27.6	0	0	---	0.00	30.249 
06:05	30.6	30.6	30.6	88	27.5	0	0	---	0.00	30.249 
06:10	30.6	30.6	30.6	88	27.5	0	0	---	0.00	30.249 
06:15	30.6	30.6	30.6	88	27.5	0	0	---	0.00	30.251 
06:20	30.4	30.4	30.4	88	27.3	0	0	---	0.00	30.251 
06:25	30.3	30.3	30.3	88	27.2	0	1	270	0.00	30.251 
06:30	30.3	30.3	30.3	89	27.5	0	0	---	0.00	30.260 
06:35	30.1	30.1	30.1	89	27.3	0	0	---	0.00	30.260 
06:40	30.1	30.1	30.1	89	27.3	0	0	---	0.00	30.260 
06:45	30.0	30.0	30.0	89	27.2	0	1	270	0.00	30.268 
06:50	30.0	30.0	30.0	89	27.2	0	0	---	0.00	30.268 
06:55	29.8	29.8	29.8	89	27.0	0	0	---	0.00	30.268 
07:00	29.8	29.8	29.8	89	27.0	0	0	---	0.00	30.269 
07:05	29.7	29.7	29.7	89	26.9	0	1	270	0.00	30.269 
07:10	29.7	29.7	29.7	90	27.1	0	1	270	0.00	30.269 
07:15	29.7	29.7	29.7	90	27.1	0	0	---	0.00	30.279 
07:20	29.7	29.7	29.7	90	27.1	0	1	270	0.00	30.279 
07:25	29.7	29.7	29.7	90	27.1	0	0	---	0.00	30.279 
07:30	29.7	29.7	29.7	90	27.1	0	0	---	0.00	30.286 
07:35	29.8	29.8	29.8	90	27.2	0	0	---	0.00	30.286 
07:40	29.8	29.8	29.8	90	27.2	0	0	---	0.00	30.286 
07:45	29.8	29.8	29.8	90	27.2	0	0	---	0.00	30.294 
07:50	30.0	30.0	30.0	90	27.4	0	1	270	0.00	30.294 
07:55	30.1	30.1	30.1	91	27.8	0	1	270	0.00	30.294 
08:00	30.3	30.3	30.3	91	28.0	0	1	270	0.00	30.301 
08:05	30.6	30.6	30.6	91	28.3	0	1	270	0.00	30.301 
08:10	30.7	30.7	30.7	91	28.4	0	1	270	0.00	30.301 
08:15	31.0	31.0	31.0	91	28.7	0	1	270	0.00	30.309 
08:20	31.3	31.3	31.3	91	29.0	0	2	270	0.00	30.309 
08:25	31.6	31.6	31.6	90	29.0	0	1	270	0.00	30.309 
08:30	31.9	31.9	31.9	90	29.3	0	1	270	0.00	30.316 
08:35	32.2	32.2	32.2	90	29.6	0	2	270	0.00	30.316 
08:40	32.5	32.5	32.5	89	29.6	0	1	270	0.00	30.316 
08:45	32.8	32.8	32.8	89	29.9	0	3	270	0.00	30.315 
08:50	33.1	33.1	33.1	88	29.9	0	1	270	0.00	30.315 
08:55	33.5	33.5	33.5	87	30.1	0	2	270	0.00	30.315 
09:00	33.8	33.8	33.8	87	30.3	0	2	270	0.00	30.322 
09:05	34.3	34.3	34.3	85	30.3	1	3	270	0.00	30.322 
09:10	34.6	34.6	34.6	84	30.3	1	2	270	0.00	30.322 
09:15	35.2	35.2	35.2	83	30.6	0	3	270	0.00	30.317 
09:20	35.8	35.8	35.8	82	30.9	0	2	270	0.00	30.317 
09:25	36.0	36.0	36.0	80	30.4	0	2	270	0.00	30.317 
09:30	36.5	36.5	36.5	78	30.3	0	1	270	0.00	30.323 
09:35	36.9	36.9	36.9	77	30.4	0	2	270	0.00	30.323 
09:40	37.3	37.3	37.3	76	30.4	0	2	270	0.00	30.323 
09:45	37.8	37.8	37.8	73	29.9	0	3	270	0.00	30.325 
09:50	38.0	38.0	38.0	73	30.1	0	2	270	0.00	30.325 
09:55	38.3	38.3	38.3	70	29.4	1	3	270	0.00	30.325 
10:00	38.6	38.6	38.6	69	29.3	1	3	270	0.00	30.324 
10:05	38.9	38.9	38.9	68	29.3	0	2	292	0.00	30.324 
10:10	39.5	39.5	39.5	67	29.5	0	2	292	0.00	30.324 
10:15	39.6	39.6	39.6	64	28.4	1	4	292	0.00	30.325 
10:20	39.8	39.8	39.8	62	27.9	1	6	315	0.00	30.325 
10:25	39.9	39.9	39.9	61	27.6	1	3	338	0.00	30.325 
10:30	40.1	40.1	40.1	61	27.7	1	4	315	0.00	30.328 
10:35	40.5	40.5	40.5	61	28.1	1	3	315	0.00	30.328 
10:40	40.6	40.6	40.6	59	27.4	1	4	315	0.00	30.328 
10:45	40.9	40.9	40.9	60	28.1	1	4	315	0.00	30.328 
10:50	40.8	40.8	40.8	60	28.0	1	4	315	0.00	30.328 
10:55	41.2	41.2	41.2	60	28.4	1	4	338	0.00	30.328 
11:00	41.6	41.6	41.6	60	28.8	0	2	338	0.00	30.331 
11:05	41.6	41.6	41.6	58	27.9	1	4	292	0.00	30.331 
11:10	41.8	41.8	41.8	58	28.1	1	3	292	0.00	30.331 
11:15	41.9	41.9	41.9	58	28.2	1	3	292	0.00	30.334 
11:20	42.1	42.1	42.1	58	28.4	0	3	270	0.00	30.334 
11:25	42.2	42.2	42.2	55	27.2	1	3	292	0.00	30.334 
11:30	42.2	42.2	42.2	55	27.2	0	3	292	0.00	30.330 
11:35	42.3	42.3	42.3	54	26.9	0	1	292	0.00	30.330 
11:40	42.5	42.5	42.5	55	27.5	1	2	292	0.00	30.330 
11:45	42.6	42.6	42.6	55	27.6	0	4	292	0.00	30.322 
11:50	42.8	42.8	42.8	53	26.9	1	4	270	0.00	30.322 
11:55	42.8	42.8	42.8	51	25.9	1	3	292	0.00	30.322 
12:00	42.8	42.8	42.8	52	26.4	0	2	315	0.00	30.313 
12:05	42.8	42.8	42.8	50	25.5	0	2	315	0.00	30.313 
12:10	42.9	42.9	42.9	51	26.0	1	3	292	0.00	30.313 
12:15	43.1	43.1	43.1	52	26.7	1	4	292	0.00	30.311 
12:20	43.3	43.3	43.3	51	26.4	0	3	292	0.00	30.311 
12:25	43.3	43.3	43.3	51	26.4	0	1	292	0.00	30.311 
12:30	43.5	43.5	43.5	50	26.1	0	3	315	0.00	30.303 
12:35	43.8	43.8	43.8	53	27.8	0	3	315	0.00	30.303 
12:40	44.2	44.2	44.2	50	26.8	1	3	315	0.00	30.303 
12:45	44.1	44.1	44.1	50	26.7	1	3	315	0.00	30.295 
12:50	44.3	44.3	44.3	51	27.3	1	4	248	0.00	30.295 
12:55	44.3	44.3	44.3	50	26.8	0	2	248	0.00	30.295 
13:00	44.2	44.2	44.2	49	26.3	0	1	248	0.00	30.282 
13:05	44.1	44.1	44.1	50	26.7	1	3	248	0.00	30.282 
13:10	44.2	44.2	44.2	50	26.8	0	2	248	0.00	30.282 
13:15	44.2	44.2	44.2	51	27.2	0	2	248	0.00	30.280 
13:20	44.5	44.5	44.5	51	27.5	0	2	248	0.00	30.280 
13:25	44.5	44.5	44.5	49	26.5	1	2	248	0.00	30.280 
13:30	44.6	44.6	44.6	50	27.1	0	3	248	0.00	30.275 
13:35	45.1	45.1	45.1	50	27.6	1	3	292	0.00	30.275 
13:40	44.9	44.9	44.9	50	27.4	1	3	292	0.00	30.275 
13:45	45.1	45.1	45.1	49	27.1	1	2	292	0.00	30.272 
13:50	45.1	45.1	45.1	50	27.6	0	2	292	0.00	30.272 
13:55	45.2	45.2	45.2	47	26.2	1	4	292	0.00	30.272 
14:00	45.2	45.2	45.2	48	26.7	1	5	315	0.00	30.270 
14:05	45.4	45.4	45.4	47	26.4	0	2	270	0.00	30.270 
14:10	45.8	45.8	45.8	49	27.7	1	4	248	0.00	30.270 
14:15	46.0	46.0	46.0	48	27.4	0	1	248	0.00	30.265 
14:20	46.0	46.0	46.0	47	26.9	1	3	248	0.00	30.265 
14:25	46.0	46.0	46.0	49	27.9	0	1	292	0.00	30.265 
14:30	46.2	46.2	46.2	47	27.1	0	3	292	0.00	30.260 
14:35	46.4	46.4	46.4	48	27.8	0	3	270	0.00	30.260 
14:40	46.4	46.4	46.4	45	26.2	1	3	270	0.00	30.260 
14:45	46.4	46.4	46.4	47	27.3	0	2	270	0.00	30.255 
14:50	46.5	46.5	46.5	47	27.4	0	2	270	0.00	30.255 
14:55	46.8	46.8	46.8	47	27.6	0	2	270	0.00	30.255 
15:00	47.0	47.0	47.0	47	27.8	0	1	270	0.00	30.257 
15:05	47.0	47.0	47.0	45	26.8	0	2	270	0.00	30.257 
15:10	46.4	46.4	46.4	46	26.8	0	1	270	0.00	30.257 
15:15	45.8	45.8	45.8	47	26.7	0	1	270	0.00	30.259 
15:20	45.5	45.5	45.5	50	28.0	0	1	270	0.00	30.259 
15:25	45.8	45.8	45.8	49	27.7	1	4	270	0.00	30.259 
15:30	45.8	45.8	45.8	49	27.7	0	3	270	0.00	30.251 
15:35	45.8	45.8	45.8	50	28.2	0	3	270	0.00	30.251 
15:40	46.0	46.0	46.0	49	27.9	0	2	270	0.00	30.251 
15:45	45.8	45.8	45.8	48	27.2	0	3	270	0.00	30.249 
15:50	45.7	45.7	45.7	49	27.6	0	1	270	0.00	30.249 
15:55	45.7	45.7	45.7	49	27.6	1	3	270	0.00	30.249 
16:00	45.7	45.7	45.7	50	28.1	0	1	270	0.00	30.251 
16:05	45.7	45.7	45.7	49	27.6	0	1	270	0.00	30.251 
16:10	45.8	45.8	45.8	49	27.7	0	2	270	0.00	30.251 
16:15	46.0	46.0	46.0	50	28.4	0	1	270	0.00	30.248 
16:20	45.8	45.8	45.8	49	27.7	0	1	270	0.00	30.248 
16:25	45.4	45.4	45.4	47	26.4	0	3	270	0.00	30.248 
16:30	45.1	45.1	45.1	49	27.1	0	1	270	0.00	30.249 
16:35	44.8	44.8	44.8	50	27.3	0	2	270	0.00	30.249 
16:40	44.6	44.6	44.6	51	27.6	0	1	270	0.00	30.249 
16:45	44.3	44.3	44.3	52	27.8	0	1	270	0.00	30.245 
16:50	44.1	44.1	44.1	53	28.1	0	1	270	0.00	30.245 
16:55	43.9	43.9	43.9	54	28.3	0	1	270	0.00	30.245 
17:00	43.9	43.9	43.9	53	27.9	0	1	270	0.00	30.245 
17:05	43.8	43.8	43.8	54	28.3	0	0	---	0.00	30.245 
17:10	43.6	43.6	43.6	55	28.5	0	0	---	0.00	30.245 
17:15	43.6	43.6	43.6	55	28.5	0	1	270	0.00	30.240 
17:20	43.5	43.5	43.5	55	28.4	0	1	270	0.00	30.240 
17:25	43.3	43.3	43.3	55	28.2	0	1	270	0.00	30.240 
17:30	43.2	43.2	43.2	56	28.6	0	0	---	0.00	30.244 
17:35	42.9	42.9	42.9	56	28.3	0	0	---	0.00	30.244 
17:40	42.6	42.6	42.6	57	28.4	0	0	---	0.00	30.244 
17:45	42.3	42.3	42.3	57	28.2	0	0	---	0.00	30.238 
17:50	42.1	42.1	42.1	58	28.4	0	0	---	0.00	30.238 
17:55	41.8	41.8	41.8	59	28.5	0	0	---	0.00	30.238 
18:00	41.5	41.5	41.5	60	28.7	0	0	---	0.00	30.239 
18:05	41.2	41.2	41.2	60	28.4	0	0	---	0.00	30.239 
18:10	40.9	40.9	40.9	61	28.5	0	0	---	0.00	30.239 
18:15	40.6	40.6	40.6	62	28.6	0	0	---	0.00	30.246 
18:20	40.3	40.3	40.3	62	28.3	0	0	---	0.00	30.246 
18:25	40.1	40.1	40.1	63	28.5	0	0	---	0.00	30.246 
18:30	39.8	39.8	39.8	64	28.6	0	0	---	0.00	30.253 
18:35	39.5	39.5	39.5	65	28.7	0	0	---	0.00	30.253 
18:40	39.2	39.2	39.2	66	28.8	0	0	---	0.00	30.253 
18:45	38.8	38.8	38.8	67	28.8	0	0	---	0.00	30.244 
18:50	38.5	38.5	38.5	69	29.2	0	0	---	0.00	30.244 
18:55	38.2	38.2	38.2	69	28.9	0	0	---	0.00	30.244 
19:00	37.9	37.9	37.9	70	29.0	0	0	---	0.00	30.242 
19:05	37.6	37.6	37.6	70	28.7	0	0	---	0.00	30.242 
19:10	37.3	37.3	37.3	71	28.8	0	0	---	0.00	30.242 
19:15	37.2	37.2	37.2	72	29.0	0	0	---	0.00	30.243 
19:20	37.0	37.0	37.0	73	29.2	0	0	---	0.00	30.243 
19:25	36.8	36.8	36.8	74	29.3	0	0	---	0.00	30.243 
19:30	36.5	36.5	36.5	74	29.0	0	0	---	0.00	30.243 
19:35	36.3	36.3	36.3	75	29.1	0	0	---	0.00	30.243 
19:40	36.2	36.2	36.2	75	29.1	0	0	---	0.00	30.243 
19:45	36.0	36.0	36.0	76	29.2	0	0	---	0.00	30.240 
19:50	36.0	36.0	36.0	77	29.5	0	0	---	0.00	30.240 
19:55	36.2	36.2	36.2	77	29.7	0	0	---	0.00	30.240 
20:00	36.2	36.2	36.2	78	30.0	0	0	---	0.00	30.229 
20:05	36.6	36.6	36.6	78	30.4	0	0	---	0.00	30.229 
20:10	36.9	36.9	36.9	78	30.7	0	0	---	0.00	30.229 
20:15	37.2	37.2	37.2	77	30.7	0	0	---	0.00	30.218 
20:20	37.3	37.3	37.3	77	30.8	0	0	---	0.00	30.218 
20:25	37.6	37.6	37.6	77	31.1	0	0	---	0.00	30.218 
20:30	37.8	37.8	37.8	76	30.9	0	0	---	0.00	30.222 
20:35	37.9	37.9	37.9	76	31.0	0	0	---	0.00	30.222 
20:40	38.0	38.0	38.0	75	30.8	0	0	---	0.00	30.222 
20:45	38.3	38.3	38.3	74	30.8	0	0	---	0.00	30.214 
20:50	38.6	38.6	38.6	73	30.7	0	0	---	0.00	30.214 
20:55	38.9	38.9	38.9	73	31.0	0	0	---	0.00	30.214 
21:00	39.2	39.2	39.2	72	30.9	0	1	270	0.00	30.203 
21:05	39.5	39.5	39.5	71	30.9	0	0	---	0.00	30.203 
21:10	39.6	39.6	39.6	70	30.6	0	0	---	0.00	30.203 
21:15	39.6	39.6	39.6	70	30.6	0	1	270	0.00	30.199 
21:20	39.8	39.8	39.8	69	30.5	0	1	270	0.00	30.199 
21:25	39.9	39.9	39.9	69	30.6	0	0	---	0.00	30.199 
21:30	39.9	39.9	39.9	69	30.6	0	1	270	0.00	30.200 
21:35	39.8	39.8	39.8	68	30.1	0	1	270	0.00	30.200 
21:40	39.9	39.9	39.9	68	30.2	0	1	270	0.00	30.200 
21:45	39.9	39.9	39.9	69	30.6	0	1	270	0.00	30.185 
21:50	39.9	39.9	39.9	69	30.6	0	0	---	0.00	30.185 
21:55	39.9	39.9	39.9	69	30.6	0	0	---	0.00	30.185 
22:00	39.9	39.9	39.9	69	30.6	0	0	---	0.00	30.196 
22:05	39.8	39.8	39.8	69	30.5	0	1	270	0.00	30.196 
22:10	39.8	39.8	39.8	69	30.5	0	0	---	0.00	30.196 
22:15	39.8	39.8	39.8	69	30.5	0	0	---	0.00	30.194 
22:20	39.8	39.8	39.8	69	30.5	0	0	---	0.00	30.194 
22:25	39.8	39.8	39.8	69	30.5	0	0	---	0.00	30.194 
22:30	39.8	39.8	39.8	69	30.5	0	0	---	0.00	30.192 
22:35	39.8	39.8	39.8	69	30.5	0	0	---	0.00	30.192 
22:40	40.1	40.1	40.1	68	30.4	0	1	270	0.00	30.192 
22:45	40.3	40.3	40.3	66	29.9	0	2	270	0.00	30.171 
22:50	40.8	40.8	40.8	65	30.0	0	3	270	0.00	30.171 
22:55	41.1	41.1	41.1	65	30.2	0	1	270	0.00	30.171 
23:00	41.1	41.1	41.1	65	30.2	0	1	270	0.00	30.176 
23:05	41.2	41.2	41.2	65	30.3	0	1	270	0.00	30.176 
23:10	41.2	41.2	41.2	64	30.0	0	2	0	0.00	30.176 
23:15	41.3	41.3	41.3	64	30.1	0	1	0	0.00	30.168 
23:20	41.3	41.3	41.3	65	30.4	0	1	338	0.00	30.168 
23:25	41.3	41.3	41.3	65	30.4	0	1	338	0.00	30.168 
23:30	41.3	41.3	41.3	64	30.1	0	1	338	0.00	30.163 
23:35	41.3	41.3	41.3	64	30.1	0	1	338	0.00	30.163 
23:40	41.5	41.5	41.5	63	29.9	0	1	338	0.00	30.163 
23:45	41.5	41.5	41.5	63	29.9	0	2	338	0.00	30.163 
23:50	41.6	41.6	41.6	63	30.0	0	0	---	0.00	30.163 
23:55	41.5	41.5	41.5	63	29.9	0	1	338	0.00	30.163 

CoCoRaHS
IN-AL-39
A2 Web Hosting
Creative Commons License
GoDaddy
search engine by freefind advanced

loaded 2018-11-14 04:05:38 • last modified 2010-11-18 10:43:29
Privacy PolicyDisclaimer
• wx.awcolley.com is powered by PmWiki v.2002016 •
• all content (unless otherwise noted) © 2018 A W Colley